sensor_id;sensor_type;location;lat;lon;timestamp;temperature;humidity
30234;DHT22;17046;52.074;4.748;2023-02-19T00:01:37;9.80;99.90
30234;DHT22;17046;52.074;4.748;2023-02-19T00:04:11;9.80;99.90
30234;DHT22;17046;52.074;4.748;2023-02-19T00:06:38;9.80;99.90
30234;DHT22;17046;52.074;4.748;2023-02-19T00:09:04;9.80;99.90
30234;DHT22;17046;52.074;4.748;2023-02-19T00:11:32;9.80;99.90
30234;DHT22;17046;52.074;4.748;2023-02-19T00:13:59;9.80;99.90
30234;DHT22;17046;52.074;4.748;2023-02-19T00:16:27;9.90;99.90
30234;DHT22;17046;52.074;4.748;2023-02-19T00:18:55;9.80;99.90
30234;DHT22;17046;52.074;4.748;2023-02-19T00:21:21;9.90;99.90
30234;DHT22;17046;52.074;4.748;2023-02-19T00:23:51;9.90;99.90
30234;DHT22;17046;52.074;4.748;2023-02-19T00:26:18;9.90;99.90
30234;DHT22;17046;52.074;4.748;2023-02-19T00:28:44;9.90;99.90
30234;DHT22;17046;52.074;4.748;2023-02-19T00:31:32;9.90;99.90
30234;DHT22;17046;52.074;4.748;2023-02-19T00:34:00;10.00;99.90
30234;DHT22;17046;52.074;4.748;2023-02-19T00:36:27;10.10;99.90
30234;DHT22;17046;52.074;4.748;2023-02-19T00:38:53;10.10;99.90
30234;DHT22;17046;52.074;4.748;2023-02-19T00:41:20;10.00;99.90
30234;DHT22;17046;52.074;4.748;2023-02-19T00:43:51;10.10;99.90
30234;DHT22;17046;52.074;4.748;2023-02-19T00:46:20;10.10;99.90
30234;DHT22;17046;52.074;4.748;2023-02-19T00:48:46;10.20;99.90
30234;DHT22;17046;52.074;4.748;2023-02-19T00:51:12;10.20;99.90
30234;DHT22;17046;52.074;4.748;2023-02-19T00:53:37;10.20;99.90
30234;DHT22;17046;52.074;4.748;2023-02-19T00:56:03;10.20;99.90
30234;DHT22;17046;52.074;4.748;2023-02-19T00:58:29;10.20;99.90
30234;DHT22;17046;52.074;4.748;2023-02-19T01:00:54;10.20;99.90
30234;DHT22;17046;52.074;4.748;2023-02-19T01:03:20;10.20;99.90
30234;DHT22;17046;52.074;4.748;2023-02-19T01:05:49;10.20;99.90
30234;DHT22;17046;52.074;4.748;2023-02-19T01:08:15;10.30;99.90
30234;DHT22;17046;52.074;4.748;2023-02-19T01:10:41;10.20;99.90
30234;DHT22;17046;52.074;4.748;2023-02-19T01:13:07;10.20;99.90
30234;DHT22;17046;52.074;4.748;2023-02-19T01:15:33;10.10;99.90
30234;DHT22;17046;52.074;4.748;2023-02-19T01:17:58;10.10;99.90
30234;DHT22;17046;52.074;4.748;2023-02-19T01:20:24;10.10;99.90
30234;DHT22;17046;52.074;4.748;2023-02-19T01:22:51;10.10;99.90
30234;DHT22;17046;52.074;4.748;2023-02-19T01:25:16;10.10;99.90
30234;DHT22;17046;52.074;4.748;2023-02-19T01:27:42;10.00;99.90
30234;DHT22;17046;52.074;4.748;2023-02-19T01:30:08;10.00;99.90
30234;DHT22;17046;52.074;4.748;2023-02-19T01:32:34;10.00;99.90
30234;DHT22;17046;52.074;4.748;2023-02-19T01:34:59;10.00;99.90
30234;DHT22;17046;52.074;4.748;2023-02-19T01:37:25;10.10;99.90
30234;DHT22;17046;52.074;4.748;2023-02-19T01:39:51;10.10;99.90
30234;DHT22;17046;52.074;4.748;2023-02-19T01:42:16;10.10;99.90
30234;DHT22;17046;52.074;4.748;2023-02-19T01:47:07;10.10;99.90
30234;DHT22;17046;52.074;4.748;2023-02-19T01:49:37;10.10;99.90
30234;DHT22;17046;52.074;4.748;2023-02-19T01:52:41;10.20;99.90
30234;DHT22;17046;52.074;4.748;2023-02-19T01:55:02;10.10;99.90
30234;DHT22;17046;52.074;4.748;2023-02-19T01:57:33;10.20;99.90
30234;DHT22;17046;52.074;4.748;2023-02-19T02:00:08;10.10;99.90
30234;DHT22;17046;52.074;4.748;2023-02-19T02:02:34;10.10;99.90
30234;DHT22;17046;52.074;4.748;2023-02-19T02:05:00;10.00;99.90
30234;DHT22;17046;52.074;4.748;2023-02-19T02:07:26;10.00;99.90
30234;DHT22;17046;52.074;4.748;2023-02-19T02:10:10;10.00;99.90
30234;DHT22;17046;52.074;4.748;2023-02-19T02:12:49;9.90;99.90
30234;DHT22;17046;52.074;4.748;2023-02-19T02:15:15;9.90;99.90
30234;DHT22;17046;52.074;4.748;2023-02-19T02:18:07;9.90;99.90
30234;DHT22;17046;52.074;4.748;2023-02-19T02:31:42;9.80;99.90
30234;DHT22;17046;52.074;4.748;2023-02-19T02:34:15;9.90;99.90
30234;DHT22;17046;52.074;4.748;2023-02-19T02:36:45;9.90;99.90
30234;DHT22;17046;52.074;4.748;2023-02-19T02:39:16;9.90;99.90
30234;DHT22;17046;52.074;4.748;2023-02-19T02:41:48;9.90;99.90
30234;DHT22;17046;52.074;4.748;2023-02-19T02:44:35;9.90;99.90
30234;DHT22;17046;52.074;4.748;2023-02-19T02:47:03;9.90;99.90
30234;DHT22;17046;52.074;4.748;2023-02-19T02:49:30;9.90;99.90
30234;DHT22;17046;52.074;4.748;2023-02-19T02:51:58;9.80;99.90
30234;DHT22;17046;52.074;4.748;2023-02-19T02:54:45;9.70;99.90
30234;DHT22;17046;52.074;4.748;2023-02-19T02:57:29;9.70;99.90
30234;DHT22;17046;52.074;4.748;2023-02-19T02:59:55;9.70;99.90
30234;DHT22;17046;52.074;4.748;2023-02-19T03:02:27;9.80;99.90
30234;DHT22;17046;52.074;4.748;2023-02-19T03:05:12;9.70;99.90
30234;DHT22;17046;52.074;4.748;2023-02-19T03:08:14;9.70;99.90
30234;DHT22;17046;52.074;4.748;2023-02-19T03:10:55;9.70;99.90
30234;DHT22;17046;52.074;4.748;2023-02-19T03:13:28;9.60;99.90
30234;DHT22;17046;52.074;4.748;2023-02-19T03:16:19;9.60;99.90
30234;DHT22;17046;52.074;4.748;2023-02-19T03:19:07;9.60;99.90
30234;DHT22;17046;52.074;4.748;2023-02-19T03:22:00;9.70;99.90
30234;DHT22;17046;52.074;4.748;2023-02-19T03:24:34;9.70;99.90
30234;DHT22;17046;52.074;4.748;2023-02-19T03:27:21;9.60;99.90
30234;DHT22;17046;52.074;4.748;2023-02-19T03:29:50;9.60;99.90
30234;DHT22;17046;52.074;4.748;2023-02-19T03:35:25;9.60;99.90
30234;DHT22;17046;52.074;4.748;2023-02-19T03:40:28;9.50;99.90
30234;DHT22;17046;52.074;4.748;2023-02-19T03:42:57;9.50;99.90
30234;DHT22;17046;52.074;4.748;2023-02-19T03:45:56;9.50;99.90
30234;DHT22;17046;52.074;4.748;2023-02-19T03:48:33;9.50;99.90
30234;DHT22;17046;52.074;4.748;2023-02-19T03:56:33;9.40;99.90
30234;DHT22;17046;52.074;4.748;2023-02-19T04:01:40;9.50;99.90
30234;DHT22;17046;52.074;4.748;2023-02-19T04:06:42;9.40;99.90
30234;DHT22;17046;52.074;4.748;2023-02-19T04:09:11;9.40;99.90
30234;DHT22;17046;52.074;4.748;2023-02-19T04:11:39;9.40;99.90
30234;DHT22;17046;52.074;4.748;2023-02-19T04:14:12;9.40;99.90
30234;DHT22;17046;52.074;4.748;2023-02-19T04:16:41;9.30;99.90
30234;DHT22;17046;52.074;4.748;2023-02-19T04:19:11;9.40;99.90
30234;DHT22;17046;52.074;4.748;2023-02-19T04:21:39;9.40;99.90
30234;DHT22;17046;52.074;4.748;2023-02-19T04:24:12;9.30;99.90
30234;DHT22;17046;52.074;4.748;2023-02-19T04:26:39;9.40;99.90
30234;DHT22;17046;52.074;4.748;2023-02-19T04:29:05;9.40;99.90
30234;DHT22;17046;52.074;4.748;2023-02-19T04:31:31;9.40;99.90
30234;DHT22;17046;52.074;4.748;2023-02-19T04:34:00;9.40;99.90
30234;DHT22;17046;52.074;4.748;2023-02-19T04:36:26;9.40;99.90
30234;DHT22;17046;52.074;4.748;2023-02-19T04:38:52;9.40;99.90
30234;DHT22;17046;52.074;4.748;2023-02-19T04:41:17;9.40;99.90
30234;DHT22;17046;52.074;4.748;2023-02-19T04:43:43;9.50;99.90
30234;DHT22;17046;52.074;4.748;2023-02-19T04:46:09;9.50;99.90
30234;DHT22;17046;52.074;4.748;2023-02-19T04:48:34;9.50;99.90
30234;DHT22;17046;52.074;4.748;2023-02-19T04:51:04;9.60;99.90
30234;DHT22;17046;52.074;4.748;2023-02-19T04:53:30;9.60;99.90
30234;DHT22;17046;52.074;4.748;2023-02-19T04:55:55;9.50;99.90
30234;DHT22;17046;52.074;4.748;2023-02-19T04:58:21;9.60;99.90
30234;DHT22;17046;52.074;4.748;2023-02-19T05:00:51;9.50;99.90
30234;DHT22;17046;52.074;4.748;2023-02-19T05:03:16;9.60;99.90
30234;DHT22;17046;52.074;4.748;2023-02-19T05:05:42;9.60;99.90
30234;DHT22;17046;52.074;4.748;2023-02-19T05:08:07;9.50;99.90
30234;DHT22;17046;52.074;4.748;2023-02-19T05:10:33;9.50;99.90
30234;DHT22;17046;52.074;4.748;2023-02-19T05:12:59;9.60;99.90
30234;DHT22;17046;52.074;4.748;2023-02-19T05:15:24;9.60;99.90
30234;DHT22;17046;52.074;4.748;2023-02-19T05:17:50;9.50;99.90
30234;DHT22;17046;52.074;4.748;2023-02-19T05:20:15;9.50;99.90
30234;DHT22;17046;52.074;4.748;2023-02-19T05:22:41;9.50;99.90
30234;DHT22;17046;52.074;4.748;2023-02-19T05:25:07;9.50;99.90
30234;DHT22;17046;52.074;4.748;2023-02-19T05:27:32;9.50;99.90
30234;DHT22;17046;52.074;4.748;2023-02-19T05:29:58;9.50;99.90
30234;DHT22;17046;52.074;4.748;2023-02-19T05:32:23;9.40;99.90
30234;DHT22;17046;52.074;4.748;2023-02-19T05:34:50;9.40;99.90
30234;DHT22;17046;52.074;4.748;2023-02-19T05:37:15;9.30;99.90
30234;DHT22;17046;52.074;4.748;2023-02-19T05:39:41;9.30;99.90
30234;DHT22;17046;52.074;4.748;2023-02-19T05:42:06;9.30;99.90
30234;DHT22;17046;52.074;4.748;2023-02-19T05:44:32;9.20;99.90
30234;DHT22;17046;52.074;4.748;2023-02-19T05:46:57;9.30;99.90
30234;DHT22;17046;52.074;4.748;2023-02-19T05:49:23;9.30;99.90
30234;DHT22;17046;52.074;4.748;2023-02-19T05:51:51;9.30;99.90
30234;DHT22;17046;52.074;4.748;2023-02-19T05:54:17;9.30;99.90
30234;DHT22;17046;52.074;4.748;2023-02-19T05:56:42;9.40;99.90
30234;DHT22;17046;52.074;4.748;2023-02-19T05:59:19;9.30;99.90
30234;DHT22;17046;52.074;4.748;2023-02-19T06:01:46;9.30;99.90
30234;DHT22;17046;52.074;4.748;2023-02-19T06:04:12;9.30;99.90
30234;DHT22;17046;52.074;4.748;2023-02-19T06:06:39;9.30;99.90
30234;DHT22;17046;52.074;4.748;2023-02-19T06:09:05;9.30;99.90
30234;DHT22;17046;52.074;4.748;2023-02-19T06:11:32;9.30;99.90
30234;DHT22;17046;52.074;4.748;2023-02-19T06:13:58;9.20;99.90
30234;DHT22;17046;52.074;4.748;2023-02-19T06:16:23;9.10;99.90
30234;DHT22;17046;52.074;4.748;2023-02-19T06:18:50;9.10;99.90
30234;DHT22;17046;52.074;4.748;2023-02-19T06:21:16;9.10;99.90
30234;DHT22;17046;52.074;4.748;2023-02-19T06:23:43;9.10;99.90
30234;DHT22;17046;52.074;4.748;2023-02-19T06:26:10;9.00;99.90
30234;DHT22;17046;52.074;4.748;2023-02-19T06:28:36;9.00;99.90
30234;DHT22;17046;52.074;4.748;2023-02-19T06:31:03;9.00;99.90
30234;DHT22;17046;52.074;4.748;2023-02-19T06:33:29;9.00;99.90
30234;DHT22;17046;52.074;4.748;2023-02-19T06:35:57;9.00;99.90
30234;DHT22;17046;52.074;4.748;2023-02-19T06:38:24;9.00;99.90
30234;DHT22;17046;52.074;4.748;2023-02-19T06:40:50;9.00;99.90
30234;DHT22;17046;52.074;4.748;2023-02-19T06:43:16;9.00;99.90
30234;DHT22;17046;52.074;4.748;2023-02-19T06:45:42;9.00;99.90
30234;DHT22;17046;52.074;4.748;2023-02-19T06:48:07;9.00;99.90
30234;DHT22;17046;52.074;4.748;2023-02-19T06:50:33;8.90;99.90
30234;DHT22;17046;52.074;4.748;2023-02-19T06:52:59;9.00;99.90
30234;DHT22;17046;52.074;4.748;2023-02-19T06:55:24;9.00;99.90
30234;DHT22;17046;52.074;4.748;2023-02-19T06:57:50;9.00;99.90
30234;DHT22;17046;52.074;4.748;2023-02-19T07:00:16;9.00;99.90
30234;DHT22;17046;52.074;4.748;2023-02-19T07:02:41;9.00;99.90
30234;DHT22;17046;52.074;4.748;2023-02-19T07:05:07;9.00;99.90
30234;DHT22;17046;52.074;4.748;2023-02-19T07:07:32;9.00;99.90
30234;DHT22;17046;52.074;4.748;2023-02-19T07:09:58;9.00;99.90
30234;DHT22;17046;52.074;4.748;2023-02-19T07:12:23;9.00;99.90
30234;DHT22;17046;52.074;4.748;2023-02-19T07:14:49;9.00;99.90
30234;DHT22;17046;52.074;4.748;2023-02-19T07:17:15;9.00;99.90
30234;DHT22;17046;52.074;4.748;2023-02-19T07:19:40;9.00;99.90
30234;DHT22;17046;52.074;4.748;2023-02-19T07:22:06;8.90;99.90
30234;DHT22;17046;52.074;4.748;2023-02-19T07:24:31;9.00;99.90
30234;DHT22;17046;52.074;4.748;2023-02-19T07:26:57;9.00;99.90
30234;DHT22;17046;52.074;4.748;2023-02-19T07:29:22;9.00;99.90
30234;DHT22;17046;52.074;4.748;2023-02-19T07:31:48;9.00;99.90
30234;DHT22;17046;52.074;4.748;2023-02-19T07:34:14;8.90;99.90
30234;DHT22;17046;52.074;4.748;2023-02-19T07:36:39;8.90;99.90
30234;DHT22;17046;52.074;4.748;2023-02-19T07:39:05;9.00;99.90
30234;DHT22;17046;52.074;4.748;2023-02-19T07:41:30;8.90;99.90
30234;DHT22;17046;52.074;4.748;2023-02-19T07:43:56;8.90;99.90
30234;DHT22;17046;52.074;4.748;2023-02-19T07:46:22;8.90;99.90
30234;DHT22;17046;52.074;4.748;2023-02-19T07:48:48;8.90;99.90
30234;DHT22;17046;52.074;4.748;2023-02-19T07:51:15;8.90;99.90
30234;DHT22;17046;52.074;4.748;2023-02-19T07:53:44;9.00;99.90
30234;DHT22;17046;52.074;4.748;2023-02-19T07:56:10;8.90;99.90
30234;DHT22;17046;52.074;4.748;2023-02-19T07:58:36;8.90;99.90
30234;DHT22;17046;52.074;4.748;2023-02-19T08:01:17;9.00;99.90
30234;DHT22;17046;52.074;4.748;2023-02-19T08:03:44;8.90;99.90
30234;DHT22;17046;52.074;4.748;2023-02-19T08:06:10;8.90;99.90
30234;DHT22;17046;52.074;4.748;2023-02-19T08:08:37;9.00;99.90
30234;DHT22;17046;52.074;4.748;2023-02-19T08:11:04;9.00;99.90
30234;DHT22;17046;52.074;4.748;2023-02-19T08:13:50;9.00;99.90
30234;DHT22;17046;52.074;4.748;2023-02-19T08:16:17;9.00;99.90
30234;DHT22;17046;52.074;4.748;2023-02-19T08:18:45;9.00;99.90
30234;DHT22;17046;52.074;4.748;2023-02-19T08:21:11;9.00;99.90
30234;DHT22;17046;52.074;4.748;2023-02-19T08:23:38;9.00;99.90
30234;DHT22;17046;52.074;4.748;2023-02-19T08:26:04;9.10;99.90
30234;DHT22;17046;52.074;4.748;2023-02-19T08:28:30;9.00;99.90
30234;DHT22;17046;52.074;4.748;2023-02-19T08:31:01;9.00;99.90
30234;DHT22;17046;52.074;4.748;2023-02-19T08:33:27;8.90;99.90
30234;DHT22;17046;52.074;4.748;2023-02-19T08:35:53;8.90;99.90
30234;DHT22;17046;52.074;4.748;2023-02-19T08:38:18;9.00;99.90
30234;DHT22;17046;52.074;4.748;2023-02-19T08:40:44;8.90;99.90
30234;DHT22;17046;52.074;4.748;2023-02-19T08:43:14;9.00;99.90
30234;DHT22;17046;52.074;4.748;2023-02-19T08:45:42;9.00;99.90
30234;DHT22;17046;52.074;4.748;2023-02-19T08:48:08;9.10;99.90
30234;DHT22;17046;52.074;4.748;2023-02-19T08:50:34;9.10;99.90
30234;DHT22;17046;52.074;4.748;2023-02-19T08:53:01;9.10;99.90
30234;DHT22;17046;52.074;4.748;2023-02-19T08:55:27;9.10;99.90
30234;DHT22;17046;52.074;4.748;2023-02-19T08:57:53;9.10;99.90
30234;DHT22;17046;52.074;4.748;2023-02-19T09:00:19;9.10;99.90
30234;DHT22;17046;52.074;4.748;2023-02-19T09:02:46;9.10;99.90
30234;DHT22;17046;52.074;4.748;2023-02-19T09:05:11;9.20;99.90
30234;DHT22;17046;52.074;4.748;2023-02-19T09:07:38;9.30;99.90
30234;DHT22;17046;52.074;4.748;2023-02-19T09:10:04;9.40;99.90
30234;DHT22;17046;52.074;4.748;2023-02-19T09:12:29;9.40;99.90
30234;DHT22;17046;52.074;4.748;2023-02-19T09:14:55;9.50;99.90
30234;DHT22;17046;52.074;4.748;2023-02-19T09:17:21;9.50;99.90
30234;DHT22;17046;52.074;4.748;2023-02-19T09:19:46;9.60;99.90
30234;DHT22;17046;52.074;4.748;2023-02-19T09:22:12;9.70;99.90
30234;DHT22;17046;52.074;4.748;2023-02-19T09:24:37;9.60;99.90
30234;DHT22;17046;52.074;4.748;2023-02-19T09:27:03;9.60;99.90
30234;DHT22;17046;52.074;4.748;2023-02-19T09:29:29;9.60;99.90
30234;DHT22;17046;52.074;4.748;2023-02-19T09:31:58;9.60;99.90
30234;DHT22;17046;52.074;4.748;2023-02-19T09:34:26;9.60;99.90
30234;DHT22;17046;52.074;4.748;2023-02-19T09:36:52;9.70;99.90
30234;DHT22;17046;52.074;4.748;2023-02-19T09:39:18;9.70;99.90
30234;DHT22;17046;52.074;4.748;2023-02-19T09:41:49;9.70;99.90
30234;DHT22;17046;52.074;4.748;2023-02-19T09:44:24;9.80;99.90
30234;DHT22;17046;52.074;4.748;2023-02-19T09:46:52;9.90;99.90
30234;DHT22;17046;52.074;4.748;2023-02-19T09:49:39;10.00;99.90
30234;DHT22;17046;52.074;4.748;2023-02-19T09:54:52;10.10;99.90
30234;DHT22;17046;52.074;4.748;2023-02-19T09:57:22;10.10;99.90
30234;DHT22;17046;52.074;4.748;2023-02-19T10:02:28;10.10;99.90
30234;DHT22;17046;52.074;4.748;2023-02-19T10:04:56;10.10;99.90
30234;DHT22;17046;52.074;4.748;2023-02-19T10:07:38;10.20;99.90
30234;DHT22;17046;52.074;4.748;2023-02-19T10:12:54;10.10;99.90
30234;DHT22;17046;52.074;4.748;2023-02-19T10:15:33;10.00;99.90
30234;DHT22;17046;52.074;4.748;2023-02-19T10:18:01;10.00;99.90
30234;DHT22;17046;52.074;4.748;2023-02-19T10:20:27;10.00;99.90
30234;DHT22;17046;52.074;4.748;2023-02-19T10:23:00;10.00;99.90
30234;DHT22;17046;52.074;4.748;2023-02-19T10:25:26;10.10;99.90
30234;DHT22;17046;52.074;4.748;2023-02-19T10:27:52;10.20;99.90
30234;DHT22;17046;52.074;4.748;2023-02-19T10:30:23;10.10;99.90
30234;DHT22;17046;52.074;4.748;2023-02-19T10:35:30;10.20;99.90
30234;DHT22;17046;52.074;4.748;2023-02-19T10:38:00;10.30;99.90
30234;DHT22;17046;52.074;4.748;2023-02-19T10:40:27;10.40;99.90
30234;DHT22;17046;52.074;4.748;2023-02-19T10:42:58;10.50;99.90
30234;DHT22;17046;52.074;4.748;2023-02-19T10:45:38;10.60;99.90
30234;DHT22;17046;52.074;4.748;2023-02-19T10:48:06;10.60;99.90
30234;DHT22;17046;52.074;4.748;2023-02-19T10:50:35;10.70;99.90
30234;DHT22;17046;52.074;4.748;2023-02-19T10:53:20;10.70;99.90
30234;DHT22;17046;52.074;4.748;2023-02-19T10:55:47;10.70;99.90
30234;DHT22;17046;52.074;4.748;2023-02-19T10:58:26;10.80;99.90
30234;DHT22;17046;52.074;4.748;2023-02-19T11:01:22;10.80;99.90
30234;DHT22;17046;52.074;4.748;2023-02-19T11:03:51;10.70;99.90
30234;DHT22;17046;52.074;4.748;2023-02-19T11:06:19;10.60;99.90
30234;DHT22;17046;52.074;4.748;2023-02-19T11:11:22;10.40;99.90
30234;DHT22;17046;52.074;4.748;2023-02-19T11:13:48;10.40;99.90
30234;DHT22;17046;52.074;4.748;2023-02-19T11:16:14;10.30;99.90
30234;DHT22;17046;52.074;4.748;2023-02-19T11:18:40;10.20;99.90
30234;DHT22;17046;52.074;4.748;2023-02-19T11:21:23;10.10;99.90
30234;DHT22;17046;52.074;4.748;2023-02-19T11:23:49;10.10;99.90
30234;DHT22;17046;52.074;4.748;2023-02-19T11:26:20;10.10;99.90
30234;DHT22;17046;52.074;4.748;2023-02-19T11:28:58;9.90;99.90
30234;DHT22;17046;52.074;4.748;2023-02-19T11:31:27;9.90;99.90
30234;DHT22;17046;52.074;4.748;2023-02-19T11:33:58;9.90;99.90
30234;DHT22;17046;52.074;4.748;2023-02-19T11:36:31;9.80;99.90
30234;DHT22;17046;52.074;4.748;2023-02-19T11:39:01;9.80;99.90
30234;DHT22;17046;52.074;4.748;2023-02-19T11:44:22;9.60;99.90
30234;DHT22;17046;52.074;4.748;2023-02-19T11:58:43;9.60;99.90
30234;DHT22;17046;52.074;4.748;2023-02-19T12:01:20;9.80;99.90
30234;DHT22;17046;52.074;4.748;2023-02-19T12:04:00;10.00;99.90
30234;DHT22;17046;52.074;4.748;2023-02-19T12:17:48;11.10;99.90
30234;DHT22;17046;52.074;4.748;2023-02-19T12:20:45;11.20;99.90
30234;DHT22;17046;52.074;4.748;2023-02-19T12:43:37;8.90;99.90
30234;DHT22;17046;52.074;4.748;2023-02-19T12:46:15;8.60;99.90
30234;DHT22;17046;52.074;4.748;2023-02-19T12:49:00;8.60;99.90
30234;DHT22;17046;52.074;4.748;2023-02-19T12:51:41;8.50;99.90
30234;DHT22;17046;52.074;4.748;2023-02-19T12:57:20;8.50;99.90
30234;DHT22;17046;52.074;4.748;2023-02-19T12:59:55;8.60;99.90
30234;DHT22;17046;52.074;4.748;2023-02-19T13:02:45;8.60;99.90
30234;DHT22;17046;52.074;4.748;2023-02-19T13:08:04;8.40;99.90
30234;DHT22;17046;52.074;4.748;2023-02-19T13:10:53;8.40;99.90
30234;DHT22;17046;52.074;4.748;2023-02-19T13:16:02;8.50;99.90
30234;DHT22;17046;52.074;4.748;2023-02-19T13:18:40;8.50;99.90
30234;DHT22;17046;52.074;4.748;2023-02-19T13:21:08;8.50;99.90
30234;DHT22;17046;52.074;4.748;2023-02-19T13:23:40;8.30;99.90
30234;DHT22;17046;52.074;4.748;2023-02-19T13:30:00;8.30;99.90
30234;DHT22;17046;52.074;4.748;2023-02-19T13:38:18;8.30;99.90
30234;DHT22;17046;52.074;4.748;2023-02-19T13:40:56;8.20;99.90
30234;DHT22;17046;52.074;4.748;2023-02-19T13:43:40;8.20;99.90
30234;DHT22;17046;52.074;4.748;2023-02-19T13:46:09;8.30;99.90
30234;DHT22;17046;52.074;4.748;2023-02-19T13:48:40;8.30;99.90
30234;DHT22;17046;52.074;4.748;2023-02-19T14:14:47;9.40;99.90
30234;DHT22;17046;52.074;4.748;2023-02-19T14:17:36;9.60;99.90
30234;DHT22;17046;52.074;4.748;2023-02-19T14:28:42;9.40;99.90
30234;DHT22;17046;52.074;4.748;2023-02-19T14:31:32;9.30;99.90
30234;DHT22;17046;52.074;4.748;2023-02-19T14:34:00;9.10;99.90
30234;DHT22;17046;52.074;4.748;2023-02-19T14:41:38;9.20;99.90
30234;DHT22;17046;52.074;4.748;2023-02-19T14:44:11;9.10;99.90
30234;DHT22;17046;52.074;4.748;2023-02-19T14:46:44;9.00;99.90
30234;DHT22;17046;52.074;4.748;2023-02-19T14:52:02;9.10;99.90
30234;DHT22;17046;52.074;4.748;2023-02-19T14:54:40;9.10;99.90
30234;DHT22;17046;52.074;4.748;2023-02-19T14:57:14;9.20;99.90
30234;DHT22;17046;52.074;4.748;2023-02-19T14:59:51;9.20;99.90
30234;DHT22;17046;52.074;4.748;2023-02-19T15:02:18;9.10;99.90
30234;DHT22;17046;52.074;4.748;2023-02-19T15:04:45;9.20;99.90
30234;DHT22;17046;52.074;4.748;2023-02-19T15:07:19;9.20;99.90
30234;DHT22;17046;52.074;4.748;2023-02-19T15:09:48;9.20;99.90
30234;DHT22;17046;52.074;4.748;2023-02-19T15:12:19;9.20;99.90
30234;DHT22;17046;52.074;4.748;2023-02-19T15:14:46;9.30;99.90
30234;DHT22;17046;52.074;4.748;2023-02-19T15:17:20;9.40;99.90
30234;DHT22;17046;52.074;4.748;2023-02-19T15:19:49;9.30;99.90
30234;DHT22;17046;52.074;4.748;2023-02-19T15:22:19;9.20;99.90
30234;DHT22;17046;52.074;4.748;2023-02-19T15:24:45;9.20;99.90
30234;DHT22;17046;52.074;4.748;2023-02-19T15:27:22;9.10;99.90
30234;DHT22;17046;52.074;4.748;2023-02-19T15:29:49;9.20;99.90
30234;DHT22;17046;52.074;4.748;2023-02-19T15:32:21;9.20;99.90
30234;DHT22;17046;52.074;4.748;2023-02-19T15:34:58;9.20;99.90
30234;DHT22;17046;52.074;4.748;2023-02-19T15:37:29;9.20;99.90
30234;DHT22;17046;52.074;4.748;2023-02-19T15:39:59;9.20;99.90
30234;DHT22;17046;52.074;4.748;2023-02-19T15:42:32;9.00;99.40
30234;DHT22;17046;52.074;4.748;2023-02-19T15:47:54;9.00;99.90
30234;DHT22;17046;52.074;4.748;2023-02-19T15:50:29;8.90;99.90
30234;DHT22;17046;52.074;4.748;2023-02-19T15:53:03;8.80;99.90
30234;DHT22;17046;52.074;4.748;2023-02-19T15:55:49;8.70;99.90
30234;DHT22;17046;52.074;4.748;2023-02-19T15:58:38;8.70;99.90
30234;DHT22;17046;52.074;4.748;2023-02-19T16:01:28;8.70;99.90
30234;DHT22;17046;52.074;4.748;2023-02-19T16:03:54;8.60;99.90
30234;DHT22;17046;52.074;4.748;2023-02-19T16:06:22;8.50;99.90
30234;DHT22;17046;52.074;4.748;2023-02-19T16:13:52;8.30;75.60
30234;DHT22;17046;52.074;4.748;2023-02-19T16:16:33;8.30;93.30
30234;DHT22;17046;52.074;4.748;2023-02-19T16:19:00;8.30;96.40
30234;DHT22;17046;52.074;4.748;2023-02-19T16:21:27;8.30;98.30
30234;DHT22;17046;52.074;4.748;2023-02-19T16:24:10;8.30;97.10
30234;DHT22;17046;52.074;4.748;2023-02-19T16:26:41;8.30;99.90
30234;DHT22;17046;52.074;4.748;2023-02-19T16:29:25;8.20;99.90
30234;DHT22;17046;52.074;4.748;2023-02-19T16:31:55;8.20;99.90
30234;DHT22;17046;52.074;4.748;2023-02-19T16:34:44;8.10;99.90
30234;DHT22;17046;52.074;4.748;2023-02-19T16:42:33;8.10;99.90
30234;DHT22;17046;52.074;4.748;2023-02-19T16:44:59;8.10;99.90
30234;DHT22;17046;52.074;4.748;2023-02-19T16:47:33;8.00;99.90
30234;DHT22;17046;52.074;4.748;2023-02-19T16:50:03;8.00;99.90
30234;DHT22;17046;52.074;4.748;2023-02-19T16:52:31;7.90;99.90
30234;DHT22;17046;52.074;4.748;2023-02-19T16:54:57;7.90;99.90
30234;DHT22;17046;52.074;4.748;2023-02-19T16:57:22;7.80;99.90
30234;DHT22;17046;52.074;4.748;2023-02-19T16:59:48;7.70;99.90
30234;DHT22;17046;52.074;4.748;2023-02-19T17:02:20;7.70;99.90
30234;DHT22;17046;52.074;4.748;2023-02-19T17:04:47;7.60;99.90
30234;DHT22;17046;52.074;4.748;2023-02-19T17:07:15;7.60;99.90
30234;DHT22;17046;52.074;4.748;2023-02-19T17:09:41;7.60;99.90
30234;DHT22;17046;52.074;4.748;2023-02-19T17:12:13;7.60;99.90
30234;DHT22;17046;52.074;4.748;2023-02-19T17:14:40;7.50;99.90
30234;DHT22;17046;52.074;4.748;2023-02-19T17:17:06;7.50;99.90
30234;DHT22;17046;52.074;4.748;2023-02-19T17:19:31;7.50;99.90
30234;DHT22;17046;52.074;4.748;2023-02-19T17:21:57;7.40;99.90
30234;DHT22;17046;52.074;4.748;2023-02-19T17:24:23;7.30;99.90
30234;DHT22;17046;52.074;4.748;2023-02-19T17:26:49;7.10;99.90
30234;DHT22;17046;52.074;4.748;2023-02-19T17:29:15;7.10;99.90
30234;DHT22;17046;52.074;4.748;2023-02-19T17:31:43;7.00;99.90
30234;DHT22;17046;52.074;4.748;2023-02-19T17:34:09;6.90;99.90
30234;DHT22;17046;52.074;4.748;2023-02-19T17:36:35;6.80;99.90
30234;DHT22;17046;52.074;4.748;2023-02-19T17:39:03;6.80;99.90
30234;DHT22;17046;52.074;4.748;2023-02-19T17:41:29;6.70;99.90
30234;DHT22;17046;52.074;4.748;2023-02-19T17:43:55;6.60;99.90
30234;DHT22;17046;52.074;4.748;2023-02-19T17:46:23;6.60;99.90
30234;DHT22;17046;52.074;4.748;2023-02-19T17:48:50;6.60;99.90
30234;DHT22;17046;52.074;4.748;2023-02-19T17:51:15;6.50;99.90
30234;DHT22;17046;52.074;4.748;2023-02-19T17:53:41;6.50;99.90
30234;DHT22;17046;52.074;4.748;2023-02-19T17:56:08;6.40;99.90
30234;DHT22;17046;52.074;4.748;2023-02-19T17:58:35;6.40;99.90
30234;DHT22;17046;52.074;4.748;2023-02-19T18:01:00;6.40;99.90
30234;DHT22;17046;52.074;4.748;2023-02-19T18:03:26;6.40;99.90
30234;DHT22;17046;52.074;4.748;2023-02-19T18:05:51;6.30;99.90
30234;DHT22;17046;52.074;4.748;2023-02-19T18:08:17;6.40;99.90
30234;DHT22;17046;52.074;4.748;2023-02-19T18:10:42;6.30;99.90
30234;DHT22;17046;52.074;4.748;2023-02-19T18:13:08;6.30;99.90
30234;DHT22;17046;52.074;4.748;2023-02-19T18:15:34;6.30;99.90
30234;DHT22;17046;52.074;4.748;2023-02-19T18:18:00;6.30;99.90
30234;DHT22;17046;52.074;4.748;2023-02-19T18:20:27;6.30;99.90
30234;DHT22;17046;52.074;4.748;2023-02-19T18:22:54;6.20;99.90
30234;DHT22;17046;52.074;4.748;2023-02-19T18:25:20;6.10;99.90
30234;DHT22;17046;52.074;4.748;2023-02-19T18:27:46;6.10;99.90
30234;DHT22;17046;52.074;4.748;2023-02-19T18:30:14;6.10;99.90
30234;DHT22;17046;52.074;4.748;2023-02-19T18:32:42;6.00;99.90
30234;DHT22;17046;52.074;4.748;2023-02-19T18:35:08;6.00;99.90
30234;DHT22;17046;52.074;4.748;2023-02-19T18:37:34;6.00;99.90
30234;DHT22;17046;52.074;4.748;2023-02-19T18:40:00;6.00;99.90